sensor_id;sensor_type;location;lat;lon;timestamp;P1;durP1;ratioP1;P2;durP2;ratioP2
8881;SDS011;4477;48.736;9.176;2023-02-28T00:00:10;4.50;;;3.40;;
8881;SDS011;4477;48.736;9.176;2023-02-28T00:02:38;3.67;;;3.10;;
8881;SDS011;4477;48.736;9.176;2023-02-28T00:05:06;5.67;;;3.60;;
8881;SDS011;4477;48.736;9.176;2023-02-28T00:07:34;5.93;;;3.97;;
8881;SDS011;4477;48.736;9.176;2023-02-28T00:10:03;4.60;;;3.60;;
8881;SDS011;4477;48.736;9.176;2023-02-28T00:12:31;4.10;;;3.70;;
8881;SDS011;4477;48.736;9.176;2023-02-28T00:14:58;4.23;;;3.37;;
8881;SDS011;4477;48.736;9.176;2023-02-28T00:17:25;6.30;;;3.87;;
8881;SDS011;4477;48.736;9.176;2023-02-28T00:19:52;4.67;;;3.60;;
8881;SDS011;4477;48.736;9.176;2023-02-28T00:22:20;3.87;;;3.50;;
8881;SDS011;4477;48.736;9.176;2023-02-28T00:24:47;4.27;;;3.77;;
8881;SDS011;4477;48.736;9.176;2023-02-28T00:27:15;5.23;;;3.40;;
8881;SDS011;4477;48.736;9.176;2023-02-28T00:29:42;4.20;;;3.67;;
8881;SDS011;4477;48.736;9.176;2023-02-28T00:32:09;4.43;;;3.60;;
8881;SDS011;4477;48.736;9.176;2023-02-28T00:34:36;4.37;;;3.63;;
8881;SDS011;4477;48.736;9.176;2023-02-28T00:37:04;4.40;;;4.00;;
8881;SDS011;4477;48.736;9.176;2023-02-28T00:39:33;4.17;;;3.50;;
8881;SDS011;4477;48.736;9.176;2023-02-28T00:42:01;4.77;;;3.80;;
8881;SDS011;4477;48.736;9.176;2023-02-28T00:44:30;5.60;;;3.37;;
8881;SDS011;4477;48.736;9.176;2023-02-28T00:46:58;5.23;;;3.93;;
8881;SDS011;4477;48.736;9.176;2023-02-28T00:49:25;4.40;;;4.00;;
8881;SDS011;4477;48.736;9.176;2023-02-28T00:51:53;4.53;;;4.03;;
8881;SDS011;4477;48.736;9.176;2023-02-28T00:54:21;8.23;;;3.97;;
8881;SDS011;4477;48.736;9.176;2023-02-28T00:56:48;4.20;;;3.53;;
8881;SDS011;4477;48.736;9.176;2023-02-28T00:59:16;4.50;;;3.50;;
8881;SDS011;4477;48.736;9.176;2023-02-28T01:01:45;4.57;;;3.87;;
8881;SDS011;4477;48.736;9.176;2023-02-28T01:04:12;4.27;;;3.60;;
8881;SDS011;4477;48.736;9.176;2023-02-28T01:06:39;4.77;;;3.17;;
8881;SDS011;4477;48.736;9.176;2023-02-28T01:09:08;4.83;;;3.83;;
8881;SDS011;4477;48.736;9.176;2023-02-28T01:11:36;3.90;;;3.50;;
8881;SDS011;4477;48.736;9.176;2023-02-28T01:14:04;4.60;;;3.60;;
8881;SDS011;4477;48.736;9.176;2023-02-28T01:16:31;5.20;;;4.00;;
8881;SDS011;4477;48.736;9.176;2023-02-28T01:18:59;4.57;;;4.13;;
8881;SDS011;4477;48.736;9.176;2023-02-28T01:21:27;6.03;;;4.30;;
8881;SDS011;4477;48.736;9.176;2023-02-28T01:23:55;5.10;;;3.60;;
8881;SDS011;4477;48.736;9.176;2023-02-28T01:26:23;4.47;;;4.07;;
8881;SDS011;4477;48.736;9.176;2023-02-28T01:28:51;4.70;;;4.20;;
8881;SDS011;4477;48.736;9.176;2023-02-28T01:31:19;4.53;;;4.13;;
8881;SDS011;4477;48.736;9.176;2023-02-28T01:33:46;4.63;;;4.00;;
8881;SDS011;4477;48.736;9.176;2023-02-28T01:36:16;4.70;;;4.23;;
8881;SDS011;4477;48.736;9.176;2023-02-28T01:38:44;8.20;;;3.93;;
8881;SDS011;4477;48.736;9.176;2023-02-28T01:41:14;5.60;;;4.33;;
8881;SDS011;4477;48.736;9.176;2023-02-28T01:46:28;5.37;;;4.50;;
8881;SDS011;4477;48.736;9.176;2023-02-28T01:48:57;4.90;;;4.40;;
8881;SDS011;4477;48.736;9.176;2023-02-28T01:51:28;5.97;;;4.60;;
8881;SDS011;4477;48.736;9.176;2023-02-28T01:53:57;6.00;;;4.27;;
8881;SDS011;4477;48.736;9.176;2023-02-28T01:56:26;5.20;;;4.23;;
8881;SDS011;4477;48.736;9.176;2023-02-28T01:58:54;5.60;;;4.80;;
8881;SDS011;4477;48.736;9.176;2023-02-28T02:01:22;4.60;;;4.20;;
8881;SDS011;4477;48.736;9.176;2023-02-28T02:03:51;5.97;;;4.33;;
8881;SDS011;4477;48.736;9.176;2023-02-28T02:06:20;6.20;;;4.23;;
8881;SDS011;4477;48.736;9.176;2023-02-28T02:08:50;5.93;;;4.83;;
8881;SDS011;4477;48.736;9.176;2023-02-28T02:11:19;6.23;;;4.60;;
8881;SDS011;4477;48.736;9.176;2023-02-28T02:13:52;7.20;;;4.73;;
8881;SDS011;4477;48.736;9.176;2023-02-28T02:16:28;6.63;;;4.10;;
8881;SDS011;4477;48.736;9.176;2023-02-28T02:19:00;5.80;;;4.97;;
8881;SDS011;4477;48.736;9.176;2023-02-28T02:24:24;5.27;;;4.77;;
8881;SDS011;4477;48.736;9.176;2023-02-28T02:26:58;5.40;;;4.90;;
8881;SDS011;4477;48.736;9.176;2023-02-28T02:29:40;5.60;;;5.00;;
8881;SDS011;4477;48.736;9.176;2023-02-28T02:32:13;6.73;;;5.17;;
8881;SDS011;4477;48.736;9.176;2023-02-28T02:34:47;5.93;;;5.10;;
8881;SDS011;4477;48.736;9.176;2023-02-28T02:37:20;6.93;;;4.93;;
8881;SDS011;4477;48.736;9.176;2023-02-28T02:39:54;5.87;;;5.13;;
8881;SDS011;4477;48.736;9.176;2023-02-28T02:42:24;5.90;;;5.30;;
8881;SDS011;4477;48.736;9.176;2023-02-28T02:44:55;6.13;;;5.60;;
8881;SDS011;4477;48.736;9.176;2023-02-28T02:47:24;6.67;;;5.40;;
8881;SDS011;4477;48.736;9.176;2023-02-28T02:49:54;5.33;;;4.83;;
8881;SDS011;4477;48.736;9.176;2023-02-28T02:52:23;7.77;;;5.70;;
8881;SDS011;4477;48.736;9.176;2023-02-28T02:54:52;6.10;;;5.50;;
8881;SDS011;4477;48.736;9.176;2023-02-28T02:57:23;6.10;;;5.50;;
8881;SDS011;4477;48.736;9.176;2023-02-28T02:59:51;7.33;;;6.10;;
8881;SDS011;4477;48.736;9.176;2023-02-28T03:02:20;7.07;;;5.43;;
8881;SDS011;4477;48.736;9.176;2023-02-28T03:04:48;8.47;;;5.93;;
8881;SDS011;4477;48.736;9.176;2023-02-28T03:07:18;6.00;;;5.40;;
8881;SDS011;4477;48.736;9.176;2023-02-28T03:09:50;6.57;;;5.90;;
8881;SDS011;4477;48.736;9.176;2023-02-28T03:12:18;7.27;;;5.53;;
8881;SDS011;4477;48.736;9.176;2023-02-28T03:14:49;5.93;;;5.37;;
8881;SDS011;4477;48.736;9.176;2023-02-28T03:17:26;6.07;;;5.47;;
8881;SDS011;4477;48.736;9.176;2023-02-28T03:20:01;7.30;;;6.27;;
8881;SDS011;4477;48.736;9.176;2023-02-28T03:22:40;7.30;;;6.20;;
8881;SDS011;4477;48.736;9.176;2023-02-28T03:25:12;7.13;;;6.33;;
8881;SDS011;4477;48.736;9.176;2023-02-28T03:27:46;6.70;;;5.97;;
8881;SDS011;4477;48.736;9.176;2023-02-28T03:30:15;6.40;;;5.80;;
8881;SDS011;4477;48.736;9.176;2023-02-28T03:32:48;6.80;;;6.13;;
8881;SDS011;4477;48.736;9.176;2023-02-28T03:35:18;7.23;;;6.53;;
8881;SDS011;4477;48.736;9.176;2023-02-28T03:37:49;6.90;;;6.20;;
8881;SDS011;4477;48.736;9.176;2023-02-28T03:40:17;7.23;;;6.07;;
8881;SDS011;4477;48.736;9.176;2023-02-28T03:42:46;9.03;;;6.37;;
8881;SDS011;4477;48.736;9.176;2023-02-28T03:45:16;8.13;;;6.60;;
8881;SDS011;4477;48.736;9.176;2023-02-28T03:47:46;8.00;;;6.93;;
8881;SDS011;4477;48.736;9.176;2023-02-28T03:50:16;7.67;;;6.40;;
8881;SDS011;4477;48.736;9.176;2023-02-28T03:52:47;7.17;;;6.47;;
8881;SDS011;4477;48.736;9.176;2023-02-28T03:55:17;7.63;;;6.90;;
8881;SDS011;4477;48.736;9.176;2023-02-28T03:57:47;8.20;;;6.97;;
8881;SDS011;4477;48.736;9.176;2023-02-28T04:00:18;8.13;;;7.40;;
8881;SDS011;4477;48.736;9.176;2023-02-28T04:02:46;7.90;;;7.10;;
8881;SDS011;4477;48.736;9.176;2023-02-28T04:05:17;6.80;;;6.10;;
8881;SDS011;4477;48.736;9.176;2023-02-28T04:07:44;6.80;;;6.20;;
8881;SDS011;4477;48.736;9.176;2023-02-28T04:10:12;7.13;;;6.50;;
8881;SDS011;4477;48.736;9.176;2023-02-28T04:12:41;7.27;;;6.53;;
8881;SDS011;4477;48.736;9.176;2023-02-28T04:15:08;7.10;;;6.43;;
8881;SDS011;4477;48.736;9.176;2023-02-28T04:17:36;8.40;;;7.33;;
8881;SDS011;4477;48.736;9.176;2023-02-28T04:20:04;8.27;;;7.47;;
8881;SDS011;4477;48.736;9.176;2023-02-28T04:22:34;8.53;;;7.30;;
8881;SDS011;4477;48.736;9.176;2023-02-28T04:25:02;8.43;;;7.57;;
8881;SDS011;4477;48.736;9.176;2023-02-28T04:27:30;7.50;;;6.40;;
8881;SDS011;4477;48.736;9.176;2023-02-28T04:29:59;7.50;;;6.80;;
8881;SDS011;4477;48.736;9.176;2023-02-28T04:32:26;8.37;;;6.47;;
8881;SDS011;4477;48.736;9.176;2023-02-28T04:34:53;7.87;;;6.80;;
8881;SDS011;4477;48.736;9.176;2023-02-28T04:37:20;7.80;;;7.10;;
8881;SDS011;4477;48.736;9.176;2023-02-28T04:39:52;7.93;;;7.13;;
8881;SDS011;4477;48.736;9.176;2023-02-28T04:42:20;10.60;;;7.43;;
8881;SDS011;4477;48.736;9.176;2023-02-28T04:44:47;10.83;;;7.07;;
8881;SDS011;4477;48.736;9.176;2023-02-28T04:47:15;8.17;;;6.97;;
8881;SDS011;4477;48.736;9.176;2023-02-28T04:49:42;7.97;;;6.77;;
8881;SDS011;4477;48.736;9.176;2023-02-28T04:52:10;8.83;;;7.80;;
8881;SDS011;4477;48.736;9.176;2023-02-28T04:54:38;7.77;;;6.97;;
8881;SDS011;4477;48.736;9.176;2023-02-28T04:57:05;7.23;;;6.50;;
8881;SDS011;4477;48.736;9.176;2023-02-28T04:59:32;7.43;;;6.63;;
8881;SDS011;4477;48.736;9.176;2023-02-28T05:01:59;7.83;;;7.00;;
8881;SDS011;4477;48.736;9.176;2023-02-28T05:04:33;7.23;;;6.53;;
8881;SDS011;4477;48.736;9.176;2023-02-28T05:07:00;8.20;;;7.40;;
8881;SDS011;4477;48.736;9.176;2023-02-28T05:09:28;7.10;;;6.50;;
8881;SDS011;4477;48.736;9.176;2023-02-28T05:11:55;8.30;;;6.80;;
8881;SDS011;4477;48.736;9.176;2023-02-28T05:14:23;7.50;;;6.80;;
8881;SDS011;4477;48.736;9.176;2023-02-28T05:16:50;7.40;;;6.60;;
8881;SDS011;4477;48.736;9.176;2023-02-28T05:19:17;7.30;;;6.60;;
8881;SDS011;4477;48.736;9.176;2023-02-28T05:21:50;8.00;;;7.20;;
8881;SDS011;4477;48.736;9.176;2023-02-28T05:24:18;8.00;;;7.20;;
8881;SDS011;4477;48.736;9.176;2023-02-28T05:26:47;7.80;;;7.07;;
8881;SDS011;4477;48.736;9.176;2023-02-28T05:29:15;9.03;;;7.63;;
8881;SDS011;4477;48.736;9.176;2023-02-28T05:31:42;8.93;;;7.70;;
8881;SDS011;4477;48.736;9.176;2023-02-28T05:34:10;8.40;;;7.53;;
8881;SDS011;4477;48.736;9.176;2023-02-28T05:36:38;9.57;;;7.77;;
8881;SDS011;4477;48.736;9.176;2023-02-28T05:39:06;8.77;;;7.90;;
8881;SDS011;4477;48.736;9.176;2023-02-28T05:41:37;9.63;;;8.13;;
8881;SDS011;4477;48.736;9.176;2023-02-28T05:44:04;9.87;;;8.87;;
8881;SDS011;4477;48.736;9.176;2023-02-28T05:46:31;9.90;;;8.23;;
8881;SDS011;4477;48.736;9.176;2023-02-28T05:48:58;9.17;;;8.10;;
8881;SDS011;4477;48.736;9.176;2023-02-28T05:51:26;8.87;;;7.97;;
8881;SDS011;4477;48.736;9.176;2023-02-28T05:53:53;9.57;;;8.63;;
8881;SDS011;4477;48.736;9.176;2023-02-28T05:56:22;8.57;;;7.77;;
8881;SDS011;4477;48.736;9.176;2023-02-28T05:58:50;10.10;;;8.23;;
8881;SDS011;4477;48.736;9.176;2023-02-28T06:01:21;8.87;;;8.07;;
8881;SDS011;4477;48.736;9.176;2023-02-28T06:03:48;9.33;;;8.40;;
8881;SDS011;4477;48.736;9.176;2023-02-28T06:06:16;8.90;;;8.07;;
8881;SDS011;4477;48.736;9.176;2023-02-28T06:08:43;10.13;;;8.90;;
8881;SDS011;4477;48.736;9.176;2023-02-28T06:11:10;11.93;;;9.33;;
8881;SDS011;4477;48.736;9.176;2023-02-28T06:13:39;10.87;;;9.77;;
8881;SDS011;4477;48.736;9.176;2023-02-28T06:16:07;10.27;;;9.07;;
8881;SDS011;4477;48.736;9.176;2023-02-28T06:18:35;10.57;;;9.47;;
8881;SDS011;4477;48.736;9.176;2023-02-28T06:21:02;12.23;;;10.53;;
8881;SDS011;4477;48.736;9.176;2023-02-28T06:23:29;11.50;;;9.70;;
8881;SDS011;4477;48.736;9.176;2023-02-28T06:25:57;10.73;;;9.63;;
8881;SDS011;4477;48.736;9.176;2023-02-28T06:28:24;10.50;;;9.50;;
8881;SDS011;4477;48.736;9.176;2023-02-28T06:30:52;10.33;;;9.23;;
8881;SDS011;4477;48.736;9.176;2023-02-28T06:33:19;15.60;;;12.57;;
8881;SDS011;4477;48.736;9.176;2023-02-28T06:35:47;14.00;;;11.43;;
8881;SDS011;4477;48.736;9.176;2023-02-28T06:38:14;17.17;;;11.60;;
8881;SDS011;4477;48.736;9.176;2023-02-28T06:40:41;14.43;;;11.27;;
8881;SDS011;4477;48.736;9.176;2023-02-28T06:43:08;14.00;;;11.10;;
8881;SDS011;4477;48.736;9.176;2023-02-28T06:45:41;13.43;;;10.67;;
8881;SDS011;4477;48.736;9.176;2023-02-28T06:48:09;18.50;;;13.70;;
8881;SDS011;4477;48.736;9.176;2023-02-28T06:50:36;13.03;;;11.17;;
8881;SDS011;4477;48.736;9.176;2023-02-28T06:53:04;21.73;;;14.43;;
8881;SDS011;4477;48.736;9.176;2023-02-28T06:55:31;21.60;;;13.93;;
8881;SDS011;4477;48.736;9.176;2023-02-28T06:57:58;17.87;;;12.60;;
8881;SDS011;4477;48.736;9.176;2023-02-28T07:00:25;16.70;;;12.17;;
8881;SDS011;4477;48.736;9.176;2023-02-28T07:02:52;14.30;;;11.30;;
8881;SDS011;4477;48.736;9.176;2023-02-28T07:05:22;10.33;;;9.23;;
8881;SDS011;4477;48.736;9.176;2023-02-28T07:07:49;10.60;;;9.60;;
8881;SDS011;4477;48.736;9.176;2023-02-28T07:10:17;11.90;;;10.10;;
8881;SDS011;4477;48.736;9.176;2023-02-28T07:12:45;11.17;;;10.07;;
8881;SDS011;4477;48.736;9.176;2023-02-28T07:15:12;10.60;;;9.47;;
8881;SDS011;4477;48.736;9.176;2023-02-28T07:17:39;11.47;;;10.37;;
8881;SDS011;4477;48.736;9.176;2023-02-28T07:20:07;11.90;;;10.50;;
8881;SDS011;4477;48.736;9.176;2023-02-28T07:22:35;10.30;;;9.30;;
8881;SDS011;4477;48.736;9.176;2023-02-28T07:25:03;10.03;;;9.03;;
8881;SDS011;4477;48.736;9.176;2023-02-28T07:27:31;12.10;;;9.83;;
8881;SDS011;4477;48.736;9.176;2023-02-28T07:29:59;10.67;;;9.67;;
8881;SDS011;4477;48.736;9.176;2023-02-28T07:32:28;10.90;;;9.80;;
8881;SDS011;4477;48.736;9.176;2023-02-28T07:34:55;11.47;;;10.20;;
8881;SDS011;4477;48.736;9.176;2023-02-28T07:37:22;11.77;;;10.13;;
8881;SDS011;4477;48.736;9.176;2023-02-28T07:39:51;11.23;;;10.03;;
8881;SDS011;4477;48.736;9.176;2023-02-28T07:42:18;11.33;;;10.20;;
8881;SDS011;4477;48.736;9.176;2023-02-28T07:44:46;11.10;;;9.93;;
8881;SDS011;4477;48.736;9.176;2023-02-28T07:47:13;11.07;;;9.97;;
8881;SDS011;4477;48.736;9.176;2023-02-28T07:49:40;11.97;;;10.77;;
8881;SDS011;4477;48.736;9.176;2023-02-28T07:52:07;10.93;;;9.83;;
8881;SDS011;4477;48.736;9.176;2023-02-28T07:54:34;12.30;;;10.93;;
8881;SDS011;4477;48.736;9.176;2023-02-28T07:57:03;11.83;;;10.40;;
8881;SDS011;4477;48.736;9.176;2023-02-28T07:59:30;11.93;;;10.77;;
8881;SDS011;4477;48.736;9.176;2023-02-28T08:01:57;11.93;;;10.73;;
8881;SDS011;4477;48.736;9.176;2023-02-28T08:04:25;11.03;;;9.93;;
8881;SDS011;4477;48.736;9.176;2023-02-28T08:06:52;11.00;;;10.00;;
8881;SDS011;4477;48.736;9.176;2023-02-28T08:09:21;11.57;;;10.47;;
8881;SDS011;4477;48.736;9.176;2023-02-28T08:11:48;11.30;;;10.20;;
8881;SDS011;4477;48.736;9.176;2023-02-28T08:14:17;12.17;;;10.97;;
8881;SDS011;4477;48.736;9.176;2023-02-28T08:16:44;11.97;;;10.40;;
8881;SDS011;4477;48.736;9.176;2023-02-28T08:19:11;11.77;;;10.13;;
8881;SDS011;4477;48.736;9.176;2023-02-28T08:21:38;11.07;;;9.97;;
8881;SDS011;4477;48.736;9.176;2023-02-28T08:24:06;11.00;;;9.90;;
8881;SDS011;4477;48.736;9.176;2023-02-28T08:26:33;10.93;;;9.87;;
8881;SDS011;4477;48.736;9.176;2023-02-28T08:29:00;11.87;;;10.63;;
8881;SDS011;4477;48.736;9.176;2023-02-28T08:31:29;13.23;;;10.87;;
8881;SDS011;4477;48.736;9.176;2023-02-28T08:33:56;11.40;;;10.20;;
8881;SDS011;4477;48.736;9.176;2023-02-28T08:36:24;11.90;;;10.70;;
8881;SDS011;4477;48.736;9.176;2023-02-28T08:38:53;10.70;;;9.67;;
8881;SDS011;4477;48.736;9.176;2023-02-28T08:41:20;11.60;;;10.40;;
8881;SDS011;4477;48.736;9.176;2023-02-28T08:43:47;11.57;;;10.37;;
8881;SDS011;4477;48.736;9.176;2023-02-28T08:46:14;11.50;;;10.40;;
8881;SDS011;4477;48.736;9.176;2023-02-28T08:48:43;10.80;;;9.80;;
8881;SDS011;4477;48.736;9.176;2023-02-28T08:51:11;11.97;;;10.67;;
8881;SDS011;4477;48.736;9.176;2023-02-28T08:53:39;10.83;;;9.73;;
8881;SDS011;4477;48.736;9.176;2023-02-28T08:56:07;11.97;;;10.77;;
8881;SDS011;4477;48.736;9.176;2023-02-28T08:58:34;11.53;;;10.13;;
8881;SDS011;4477;48.736;9.176;2023-02-28T09:01:07;11.17;;;10.00;;
8881;SDS011;4477;48.736;9.176;2023-02-28T09:03:34;12.97;;;10.50;;
8881;SDS011;4477;48.736;9.176;2023-02-28T09:06:03;11.00;;;9.87;;
8881;SDS011;4477;48.736;9.176;2023-02-28T09:08:30;12.00;;;10.03;;
8881;SDS011;4477;48.736;9.176;2023-02-28T09:10:58;12.07;;;10.87;;
8881;SDS011;4477;48.736;9.176;2023-02-28T09:13:25;12.13;;;10.80;;
8881;SDS011;4477;48.736;9.176;2023-02-28T09:15:53;12.10;;;10.80;;
8881;SDS011;4477;48.736;9.176;2023-02-28T09:18:20;11.07;;;9.90;;
8881;SDS011;4477;48.736;9.176;2023-02-28T09:20:47;12.40;;;11.17;;
8881;SDS011;4477;48.736;9.176;2023-02-28T09:23:16;12.93;;;11.13;;
8881;SDS011;4477;48.736;9.176;2023-02-28T09:25:47;11.63;;;10.47;;
8881;SDS011;4477;48.736;9.176;2023-02-28T09:28:14;13.80;;;11.93;;
8881;SDS011;4477;48.736;9.176;2023-02-28T09:30:42;12.33;;;10.37;;
8881;SDS011;4477;48.736;9.176;2023-02-28T09:33:10;13.77;;;11.50;;
8881;SDS011;4477;48.736;9.176;2023-02-28T09:35:38;14.80;;;11.70;;
8881;SDS011;4477;48.736;9.176;2023-02-28T09:38:05;12.10;;;10.77;;
8881;SDS011;4477;48.736;9.176;2023-02-28T09:40:36;12.23;;;10.30;;
8881;SDS011;4477;48.736;9.176;2023-02-28T09:43:04;12.03;;;10.87;;
8881;SDS011;4477;48.736;9.176;2023-02-28T09:45:33;13.47;;;10.77;;
8881;SDS011;4477;48.736;9.176;2023-02-28T09:48:03;11.53;;;10.33;;
8881;SDS011;4477;48.736;9.176;2023-02-28T09:50:32;12.23;;;10.43;;
8881;SDS011;4477;48.736;9.176;2023-02-28T09:53:02;11.73;;;10.40;;
8881;SDS011;4477;48.736;9.176;2023-02-28T09:55:31;12.10;;;10.83;;
8881;SDS011;4477;48.736;9.176;2023-02-28T09:58:01;11.00;;;9.87;;
8881;SDS011;4477;48.736;9.176;2023-02-28T10:00:30;13.60;;;10.43;;
8881;SDS011;4477;48.736;9.176;2023-02-28T10:03:03;14.03;;;10.83;;
8881;SDS011;4477;48.736;9.176;2023-02-28T10:05:32;13.43;;;11.70;;
8881;SDS011;4477;48.736;9.176;2023-02-28T10:08:01;10.73;;;9.63;;
8881;SDS011;4477;48.736;9.176;2023-02-28T10:10:33;11.60;;;10.40;;
8881;SDS011;4477;48.736;9.176;2023-02-28T10:13:05;13.53;;;10.87;;
8881;SDS011;4477;48.736;9.176;2023-02-28T10:15:33;12.60;;;11.37;;
8881;SDS011;4477;48.736;9.176;2023-02-28T10:18:02;12.37;;;11.03;;
8881;SDS011;4477;48.736;9.176;2023-02-28T10:20:31;11.33;;;10.20;;
8881;SDS011;4477;48.736;9.176;2023-02-28T10:23:02;12.03;;;10.70;;
8881;SDS011;4477;48.736;9.176;2023-02-28T10:25:32;12.70;;;11.40;;
8881;SDS011;4477;48.736;9.176;2023-02-28T10:28:01;14.13;;;12.63;;
8881;SDS011;4477;48.736;9.176;2023-02-28T10:30:29;11.13;;;10.00;;
8881;SDS011;4477;48.736;9.176;2023-02-28T10:32:57;11.60;;;10.50;;
8881;SDS011;4477;48.736;9.176;2023-02-28T10:35:24;11.30;;;10.13;;
8881;SDS011;4477;48.736;9.176;2023-02-28T10:37:53;11.90;;;10.50;;
8881;SDS011;4477;48.736;9.176;2023-02-28T10:40:29;11.90;;;10.70;;
8881;SDS011;4477;48.736;9.176;2023-02-28T10:42:57;11.73;;;10.63;;
8881;SDS011;4477;48.736;9.176;2023-02-28T10:45:24;12.50;;;10.57;;
8881;SDS011;4477;48.736;9.176;2023-02-28T10:47:54;12.63;;;11.33;;
8881;SDS011;4477;48.736;9.176;2023-02-28T10:50:29;12.83;;;10.27;;
8881;SDS011;4477;48.736;9.176;2023-02-28T10:52:57;11.60;;;10.43;;
8881;SDS011;4477;48.736;9.176;2023-02-28T10:55:31;11.47;;;10.23;;
8881;SDS011;4477;48.736;9.176;2023-02-28T10:57:59;14.07;;;10.70;;
8881;SDS011;4477;48.736;9.176;2023-02-28T11:00:31;10.87;;;9.53;;
8881;SDS011;4477;48.736;9.176;2023-02-28T11:03:00;10.47;;;9.47;;
8881;SDS011;4477;48.736;9.176;2023-02-28T11:05:28;11.60;;;10.50;;
8881;SDS011;4477;48.736;9.176;2023-02-28T11:07:57;11.60;;;10.10;;
8881;SDS011;4477;48.736;9.176;2023-02-28T11:10:26;12.03;;;10.80;;
8881;SDS011;4477;48.736;9.176;2023-02-28T11:12:55;12.20;;;10.83;;
8881;SDS011;4477;48.736;9.176;2023-02-28T11:15:24;13.27;;;10.80;;
8881;SDS011;4477;48.736;9.176;2023-02-28T11:17:54;13.10;;;10.20;;
8881;SDS011;4477;48.736;9.176;2023-02-28T11:20:25;11.77;;;10.17;;
8881;SDS011;4477;48.736;9.176;2023-02-28T11:22:53;12.93;;;10.20;;
8881;SDS011;4477;48.736;9.176;2023-02-28T11:25:21;11.37;;;10.17;;
8881;SDS011;4477;48.736;9.176;2023-02-28T11:27:50;10.93;;;9.93;;
8881;SDS011;4477;48.736;9.176;2023-02-28T11:30:24;13.07;;;10.07;;
8881;SDS011;4477;48.736;9.176;2023-02-28T11:32:51;11.40;;;10.30;;
8881;SDS011;4477;48.736;9.176;2023-02-28T11:35:21;12.33;;;10.87;;
8881;SDS011;4477;48.736;9.176;2023-02-28T11:37:51;11.10;;;10.07;;
8881;SDS011;4477;48.736;9.176;2023-02-28T11:40:19;11.77;;;10.60;;
8881;SDS011;4477;48.736;9.176;2023-02-28T11:42:50;11.77;;;10.57;;
8881;SDS011;4477;48.736;9.176;2023-02-28T11:45:22;12.00;;;10.47;;
8881;SDS011;4477;48.736;9.176;2023-02-28T11:47:54;14.03;;;10.50;;
8881;SDS011;4477;48.736;9.176;2023-02-28T11:50:26;10.57;;;9.57;;
8881;SDS011;4477;48.736;9.176;2023-02-28T11:53:02;10.90;;;9.63;;
8881;SDS011;4477;48.736;9.176;2023-02-28T11:55:31;12.83;;;10.87;;
8881;SDS011;4477;48.736;9.176;2023-02-28T11:58:11;10.80;;;9.73;;
8881;SDS011;4477;48.736;9.176;2023-02-28T12:00:45;11.43;;;10.13;;
8881;SDS011;4477;48.736;9.176;2023-02-28T12:03:23;11.90;;;9.83;;
8881;SDS011;4477;48.736;9.176;2023-02-28T12:05:54;10.77;;;9.67;;
8881;SDS011;4477;48.736;9.176;2023-02-28T12:08:33;10.60;;;9.50;;
8881;SDS011;4477;48.736;9.176;2023-02-28T12:11:06;10.33;;;9.27;;
8881;SDS011;4477;48.736;9.176;2023-02-28T12:13:39;10.67;;;9.67;;
8881;SDS011;4477;48.736;9.176;2023-02-28T12:16:24;12.67;;;9.27;;
8881;SDS011;4477;48.736;9.176;2023-02-28T12:18:58;12.40;;;9.27;;
8881;SDS011;4477;48.736;9.176;2023-02-28T12:21:31;10.63;;;9.53;;
8881;SDS011;4477;48.736;9.176;2023-02-28T12:26:57;11.03;;;9.83;;
8881;SDS011;4477;48.736;9.176;2023-02-28T12:29:29;13.97;;;9.63;;
8881;SDS011;4477;48.736;9.176;2023-02-28T12:31:59;10.07;;;9.07;;
8881;SDS011;4477;48.736;9.176;2023-02-28T12:34:31;10.20;;;9.20;;
8881;SDS011;4477;48.736;9.176;2023-02-28T12:37:04;11.27;;;8.87;;
8881;SDS011;4477;48.736;9.176;2023-02-28T12:39:38;10.13;;;8.80;;
8881;SDS011;4477;48.736;9.176;2023-02-28T12:42:10;10.73;;;8.73;;
8881;SDS011;4477;48.736;9.176;2023-02-28T12:44:43;10.00;;;9.00;;
8881;SDS011;4477;48.736;9.176;2023-02-28T12:47:14;11.77;;;10.67;;
8881;SDS011;4477;48.736;9.176;2023-02-28T12:49:44;12.67;;;10.57;;
8881;SDS011;4477;48.736;9.176;2023-02-28T12:52:22;11.00;;;10.00;;
8881;SDS011;4477;48.736;9.176;2023-02-28T12:54:52;10.10;;;9.10;;
8881;SDS011;4477;48.736;9.176;2023-02-28T12:57:22;10.17;;;9.17;;
8881;SDS011;4477;48.736;9.176;2023-02-28T12:59:52;10.70;;;9.60;;
8881;SDS011;4477;48.736;9.176;2023-02-28T13:05:07;11.93;;;10.03;;
8881;SDS011;4477;48.736;9.176;2023-02-28T13:07:51;10.47;;;9.53;;
8881;SDS011;4477;48.736;9.176;2023-02-28T13:10:23;9.83;;;8.93;;
8881;SDS011;4477;48.736;9.176;2023-02-28T13:12:52;10.23;;;9.10;;
8881;SDS011;4477;48.736;9.176;2023-02-28T13:15:21;10.33;;;9.33;;
8881;SDS011;4477;48.736;9.176;2023-02-28T13:17:50;10.70;;;9.77;;
8881;SDS011;4477;48.736;9.176;2023-02-28T13:20:18;10.37;;;9.37;;
8881;SDS011;4477;48.736;9.176;2023-02-28T13:22:46;9.87;;;8.97;;
8881;SDS011;4477;48.736;9.176;2023-02-28T13:28:01;9.57;;;8.67;;
8881;SDS011;4477;48.736;9.176;2023-02-28T13:33:20;11.13;;;9.97;;
8881;SDS011;4477;48.736;9.176;2023-02-28T13:35:50;10.30;;;9.40;;
8881;SDS011;4477;48.736;9.176;2023-02-28T13:38:37;10.53;;;9.47;;
8881;SDS011;4477;48.736;9.176;2023-02-28T13:44:10;10.80;;;9.80;;
8881;SDS011;4477;48.736;9.176;2023-02-28T13:49:37;10.17;;;9.17;;
8881;SDS011;4477;48.736;9.176;2023-02-28T13:52:07;9.90;;;9.00;;
8881;SDS011;4477;48.736;9.176;2023-02-28T13:54:44;10.07;;;9.07;;
8881;SDS011;4477;48.736;9.176;2023-02-28T13:57:20;9.60;;;8.80;;
8881;SDS011;4477;48.736;9.176;2023-02-28T13:59:54;10.77;;;9.67;;
8881;SDS011;4477;48.736;9.176;2023-02-28T14:02:31;10.27;;;8.97;;
8881;SDS011;4477;48.736;9.176;2023-02-28T14:05:01;10.60;;;9.43;;
8881;SDS011;4477;48.736;9.176;2023-02-28T14:07:30;9.63;;;8.73;;
8881;SDS011;4477;48.736;9.176;2023-02-28T14:10:02;11.03;;;9.93;;
8881;SDS011;4477;48.736;9.176;2023-02-28T14:15:28;10.63;;;9.60;;
8881;SDS011;4477;48.736;9.176;2023-02-28T14:18:13;9.80;;;8.90;;
8881;SDS011;4477;48.736;9.176;2023-02-28T14:20:49;10.07;;;8.73;;
8881;SDS011;4477;48.736;9.176;2023-02-28T14:23:21;10.27;;;9.27;;
8881;SDS011;4477;48.736;9.176;2023-02-28T14:25:55;10.00;;;9.10;;
8881;SDS011;4477;48.736;9.176;2023-02-28T14:28:31;10.43;;;9.37;;
8881;SDS011;4477;48.736;9.176;2023-02-28T14:31:06;9.47;;;8.57;;
8881;SDS011;4477;48.736;9.176;2023-02-28T14:33:40;9.87;;;8.97;;
8881;SDS011;4477;48.736;9.176;2023-02-28T14:36:14;9.90;;;8.90;;
8881;SDS011;4477;48.736;9.176;2023-02-28T14:38:44;10.00;;;9.07;;
8881;SDS011;4477;48.736;9.176;2023-02-28T14:41:22;9.87;;;8.97;;
8881;SDS011;4477;48.736;9.176;2023-02-28T14:43:51;10.33;;;9.33;;
8881;SDS011;4477;48.736;9.176;2023-02-28T14:46:22;9.63;;;8.17;;
8881;SDS011;4477;48.736;9.176;2023-02-28T14:48:52;9.97;;;8.80;;
8881;SDS011;4477;48.736;9.176;2023-02-28T14:51:20;11.10;;;10.10;;
8881;SDS011;4477;48.736;9.176;2023-02-28T14:53:49;10.40;;;8.60;;
8881;SDS011;4477;48.736;9.176;2023-02-28T14:56:19;9.37;;;8.27;;
8881;SDS011;4477;48.736;9.176;2023-02-28T14:58:50;11.30;;;10.10;;
8881;SDS011;4477;48.736;9.176;2023-02-28T15:01:19;11.33;;;9.27;;
8881;SDS011;4477;48.736;9.176;2023-02-28T15:03:48;10.47;;;9.47;;
8881;SDS011;4477;48.736;9.176;2023-02-28T15:06:23;10.03;;;9.03;;
8881;SDS011;4477;48.736;9.176;2023-02-28T15:11:32;9.87;;;8.87;;
8881;SDS011;4477;48.736;9.176;2023-02-28T15:13:59;12.73;;;9.57;;
8881;SDS011;4477;48.736;9.176;2023-02-28T15:16:29;10.70;;;9.53;;
8881;SDS011;4477;48.736;9.176;2023-02-28T15:18:59;9.90;;;8.83;;
8881;SDS011;4477;48.736;9.176;2023-02-28T15:21:28;9.70;;;8.80;;
8881;SDS011;4477;48.736;9.176;2023-02-28T15:23:56;9.60;;;8.70;;
8881;SDS011;4477;48.736;9.176;2023-02-28T15:26:25;10.20;;;9.10;;
8881;SDS011;4477;48.736;9.176;2023-02-28T15:28:57;10.53;;;9.53;;
8881;SDS011;4477;48.736;9.176;2023-02-28T15:31:26;10.53;;;9.10;;
8881;SDS011;4477;48.736;9.176;2023-02-28T15:33:55;10.70;;;9.00;;
8881;SDS011;4477;48.736;9.176;2023-02-28T15:36:25;10.83;;;9.30;;
8881;SDS011;4477;48.736;9.176;2023-02-28T15:38:57;9.90;;;8.87;;
8881;SDS011;4477;48.736;9.176;2023-02-28T15:41:24;10.70;;;9.63;;
8881;SDS011;4477;48.736;9.176;2023-02-28T15:46:58;10.97;;;9.70;;